sensor_id;sensor_type;location;lat;lon;timestamp;temperature;humidity
71142;DHT22;58808;59.366;17.970;2024-03-08T00:00:08;0.70;99.90
71142;DHT22;58808;59.366;17.970;2024-03-08T00:02:41;0.50;99.90
71142;DHT22;58808;59.366;17.970;2024-03-08T00:05:08;0.50;99.90
71142;DHT22;58808;59.366;17.970;2024-03-08T00:07:38;0.50;99.90
71142;DHT22;58808;59.366;17.970;2024-03-08T00:10:05;0.40;99.90
71142;DHT22;58808;59.366;17.970;2024-03-08T00:12:31;0.30;99.90
71142;DHT22;58808;59.366;17.970;2024-03-08T00:14:56;0.30;99.90
71142;DHT22;58808;59.366;17.970;2024-03-08T00:17:22;0.20;99.90
71142;DHT22;58808;59.366;17.970;2024-03-08T00:19:51;0.10;99.90
71142;DHT22;58808;59.366;17.970;2024-03-08T00:22:17;0.20;99.90
71142;DHT22;58808;59.366;17.970;2024-03-08T00:24:43;0.10;99.90
71142;DHT22;58808;59.366;17.970;2024-03-08T00:27:09;0.40;99.90
71142;DHT22;58808;59.366;17.970;2024-03-08T00:29:35;0.40;99.90
71142;DHT22;58808;59.366;17.970;2024-03-08T00:32:01;0.30;99.90
71142;DHT22;58808;59.366;17.970;2024-03-08T00:34:27;0.30;99.90
71142;DHT22;58808;59.366;17.970;2024-03-08T00:36:53;0.30;99.90
71142;DHT22;58808;59.366;17.970;2024-03-08T00:39:19;0.40;99.90
71142;DHT22;58808;59.366;17.970;2024-03-08T00:41:48;0.40;99.90
71142;DHT22;58808;59.366;17.970;2024-03-08T00:44:14;0.50;99.90
71142;DHT22;58808;59.366;17.970;2024-03-08T00:46:39;0.30;99.90
71142;DHT22;58808;59.366;17.970;2024-03-08T00:49:05;0.50;99.90
71142;DHT22;58808;59.366;17.970;2024-03-08T00:51:32;0.40;99.90
71142;DHT22;58808;59.366;17.970;2024-03-08T00:53:58;0.50;99.90
71142;DHT22;58808;59.366;17.970;2024-03-08T00:56:23;0.50;99.90
71142;DHT22;58808;59.366;17.970;2024-03-08T00:58:50;0.60;99.90
71142;DHT22;58808;59.366;17.970;2024-03-08T01:01:18;0.60;99.90
71142;DHT22;58808;59.366;17.970;2024-03-08T01:03:44;0.60;99.90
71142;DHT22;58808;59.366;17.970;2024-03-08T01:06:10;0.60;99.90
71142;DHT22;58808;59.366;17.970;2024-03-08T01:08:37;0.40;99.90
71142;DHT22;58808;59.366;17.970;2024-03-08T01:11:04;0.30;99.90
71142;DHT22;58808;59.366;17.970;2024-03-08T01:13:34;0.30;99.90
71142;DHT22;58808;59.366;17.970;2024-03-08T01:16:00;0.20;99.90
71142;DHT22;58808;59.366;17.970;2024-03-08T01:18:26;0.10;99.90
71142;DHT22;58808;59.366;17.970;2024-03-08T01:20:52;0.00;99.90
71142;DHT22;58808;59.366;17.970;2024-03-08T01:23:18;-0.20;99.90
71142;DHT22;58808;59.366;17.970;2024-03-08T01:25:44;-0.20;99.90
71142;DHT22;58808;59.366;17.970;2024-03-08T01:28:09;-0.30;99.90
71142;DHT22;58808;59.366;17.970;2024-03-08T01:30:35;-0.40;99.90
71142;DHT22;58808;59.366;17.970;2024-03-08T01:33:03;-0.30;99.90
71142;DHT22;58808;59.366;17.970;2024-03-08T01:35:28;-0.30;99.90
71142;DHT22;58808;59.366;17.970;2024-03-08T01:37:54;-0.40;99.90
71142;DHT22;58808;59.366;17.970;2024-03-08T01:40:20;-0.30;99.90
71142;DHT22;58808;59.366;17.970;2024-03-08T01:42:46;-0.30;99.90
71142;DHT22;58808;59.366;17.970;2024-03-08T01:45:13;-0.40;99.90
71142;DHT22;58808;59.366;17.970;2024-03-08T01:47:39;-0.40;99.90
71142;DHT22;58808;59.366;17.970;2024-03-08T01:50:05;-0.30;99.90
71142;DHT22;58808;59.366;17.970;2024-03-08T01:52:35;-0.30;99.90
71142;DHT22;58808;59.366;17.970;2024-03-08T01:55:02;-0.30;99.90
71142;DHT22;58808;59.366;17.970;2024-03-08T01:57:31;-0.30;99.90
71142;DHT22;58808;59.366;17.970;2024-03-08T02:00:00;-0.30;99.90
71142;DHT22;58808;59.366;17.970;2024-03-08T02:02:31;-0.30;99.90
71142;DHT22;58808;59.366;17.970;2024-03-08T02:04:57;-0.20;99.90
71142;DHT22;58808;59.366;17.970;2024-03-08T02:07:23;-0.20;99.90
71142;DHT22;58808;59.366;17.970;2024-03-08T02:09:49;-0.10;99.90
71142;DHT22;58808;59.366;17.970;2024-03-08T02:12:15;-0.20;99.90
71142;DHT22;58808;59.366;17.970;2024-03-08T02:14:41;-0.40;99.90
71142;DHT22;58808;59.366;17.970;2024-03-08T02:17:06;-0.40;99.90
71142;DHT22;58808;59.366;17.970;2024-03-08T02:19:33;-0.40;99.90
71142;DHT22;58808;59.366;17.970;2024-03-08T02:21:59;-0.40;99.90
71142;DHT22;58808;59.366;17.970;2024-03-08T02:24:24;-0.60;99.90
71142;DHT22;58808;59.366;17.970;2024-03-08T02:26:51;-0.60;99.90
71142;DHT22;58808;59.366;17.970;2024-03-08T02:29:17;-0.70;99.90
71142;DHT22;58808;59.366;17.970;2024-03-08T02:31:43;-0.60;99.90
71142;DHT22;58808;59.366;17.970;2024-03-08T02:34:08;-0.60;99.90
71142;DHT22;58808;59.366;17.970;2024-03-08T02:36:35;-0.60;99.90
71142;DHT22;58808;59.366;17.970;2024-03-08T02:39:03;-0.70;99.90
71142;DHT22;58808;59.366;17.970;2024-03-08T02:41:31;-0.60;99.90
71142;DHT22;58808;59.366;17.970;2024-03-08T02:43:56;-0.50;99.90
71142;DHT22;58808;59.366;17.970;2024-03-08T02:46:22;-0.60;99.90
71142;DHT22;58808;59.366;17.970;2024-03-08T02:48:48;-0.50;99.90
71142;DHT22;58808;59.366;17.970;2024-03-08T02:51:14;-0.70;99.90
71142;DHT22;58808;59.366;17.970;2024-03-08T02:53:41;-0.60;99.90
71142;DHT22;58808;59.366;17.970;2024-03-08T02:56:08;-0.60;99.90
71142;DHT22;58808;59.366;17.970;2024-03-08T02:58:38;-0.70;99.90
71142;DHT22;58808;59.366;17.970;2024-03-08T03:01:04;-0.70;99.90
71142;DHT22;58808;59.366;17.970;2024-03-08T03:03:29;-0.70;99.90
71142;DHT22;58808;59.366;17.970;2024-03-08T03:05:55;-0.70;99.90
71142;DHT22;58808;59.366;17.970;2024-03-08T03:08:21;-0.60;99.90
71142;DHT22;58808;59.366;17.970;2024-03-08T03:10:47;-0.60;99.90
71142;DHT22;58808;59.366;17.970;2024-03-08T03:13:13;-0.60;99.90
71142;DHT22;58808;59.366;17.970;2024-03-08T03:15:40;-0.70;99.90
71142;DHT22;58808;59.366;17.970;2024-03-08T03:18:08;-0.70;99.90
71142;DHT22;58808;59.366;17.970;2024-03-08T03:20:34;-0.70;99.90
71142;DHT22;58808;59.366;17.970;2024-03-08T03:23:06;-0.70;99.90
71142;DHT22;58808;59.366;17.970;2024-03-08T03:25:34;-0.70;99.90
71142;DHT22;58808;59.366;17.970;2024-03-08T03:28:01;-0.70;99.90
71142;DHT22;58808;59.366;17.970;2024-03-08T03:30:27;-0.60;99.90
71142;DHT22;58808;59.366;17.970;2024-03-08T03:32:56;-0.60;99.90
71142;DHT22;58808;59.366;17.970;2024-03-08T03:35:26;-0.60;99.90
71142;DHT22;58808;59.366;17.970;2024-03-08T03:37:52;-0.60;99.90
71142;DHT22;58808;59.366;17.970;2024-03-08T03:40:33;-0.50;99.90
71142;DHT22;58808;59.366;17.970;2024-03-08T03:42:59;-0.60;99.90
71142;DHT22;58808;59.366;17.970;2024-03-08T03:45:25;-0.60;99.90
71142;DHT22;58808;59.366;17.970;2024-03-08T03:47:51;-0.70;99.90
71142;DHT22;58808;59.366;17.970;2024-03-08T03:50:20;-0.70;99.90
71142;DHT22;58808;59.366;17.970;2024-03-08T03:52:47;-0.80;99.90
71142;DHT22;58808;59.366;17.970;2024-03-08T03:55:14;-0.80;99.90
71142;DHT22;58808;59.366;17.970;2024-03-08T03:57:40;-0.80;99.90
71142;DHT22;58808;59.366;17.970;2024-03-08T04:00:07;-0.70;99.90
71142;DHT22;58808;59.366;17.970;2024-03-08T04:02:48;-0.80;99.90
71142;DHT22;58808;59.366;17.970;2024-03-08T04:05:14;-0.80;99.90
71142;DHT22;58808;59.366;17.970;2024-03-08T04:07:40;-0.90;99.90
71142;DHT22;58808;59.366;17.970;2024-03-08T04:10:08;-1.00;99.90
71142;DHT22;58808;59.366;17.970;2024-03-08T04:12:34;-1.00;99.90
71142;DHT22;58808;59.366;17.970;2024-03-08T04:15:00;-1.00;99.90
71142;DHT22;58808;59.366;17.970;2024-03-08T04:17:26;-0.90;99.90
71142;DHT22;58808;59.366;17.970;2024-03-08T04:19:52;-0.90;99.90
71142;DHT22;58808;59.366;17.970;2024-03-08T04:22:18;-0.90;99.90
71142;DHT22;58808;59.366;17.970;2024-03-08T04:24:44;-0.80;99.90
71142;DHT22;58808;59.366;17.970;2024-03-08T04:27:11;-0.70;99.90
71142;DHT22;58808;59.366;17.970;2024-03-08T04:29:37;-0.70;99.90
71142;DHT22;58808;59.366;17.970;2024-03-08T04:32:06;-0.70;99.90
71142;DHT22;58808;59.366;17.970;2024-03-08T04:34:36;-0.70;99.90
71142;DHT22;58808;59.366;17.970;2024-03-08T04:37:02;-0.80;99.90
71142;DHT22;58808;59.366;17.970;2024-03-08T04:39:30;-0.70;99.90
71142;DHT22;58808;59.366;17.970;2024-03-08T04:42:02;-0.70;99.90
71142;DHT22;58808;59.366;17.970;2024-03-08T04:44:37;-0.80;99.90
71142;DHT22;58808;59.366;17.970;2024-03-08T04:47:03;-0.90;99.90
71142;DHT22;58808;59.366;17.970;2024-03-08T04:49:34;-0.80;99.90
71142;DHT22;58808;59.366;17.970;2024-03-08T04:52:03;-0.90;99.90
71142;DHT22;58808;59.366;17.970;2024-03-08T04:54:29;-0.80;99.90
71142;DHT22;58808;59.366;17.970;2024-03-08T04:56:55;-0.80;99.90
71142;DHT22;58808;59.366;17.970;2024-03-08T04:59:21;-0.70;99.90
71142;DHT22;58808;59.366;17.970;2024-03-08T05:01:47;-0.80;99.90
71142;DHT22;58808;59.366;17.970;2024-03-08T05:04:13;-0.90;99.90
71142;DHT22;58808;59.366;17.970;2024-03-08T05:06:39;-0.90;99.90
71142;DHT22;58808;59.366;17.970;2024-03-08T05:09:05;-0.80;99.90
71142;DHT22;58808;59.366;17.970;2024-03-08T05:11:40;-0.90;99.90
71142;DHT22;58808;59.366;17.970;2024-03-08T05:14:06;-0.90;99.90
71142;DHT22;58808;59.366;17.970;2024-03-08T05:16:31;-1.00;99.90
71142;DHT22;58808;59.366;17.970;2024-03-08T05:18:57;-0.90;99.90
71142;DHT22;58808;59.366;17.970;2024-03-08T05:21:23;-0.90;99.90
71142;DHT22;58808;59.366;17.970;2024-03-08T05:23:49;-1.00;99.90
71142;DHT22;58808;59.366;17.970;2024-03-08T05:26:16;-1.00;99.90
71142;DHT22;58808;59.366;17.970;2024-03-08T05:28:42;-1.00;99.90
71142;DHT22;58808;59.366;17.970;2024-03-08T05:31:08;-0.90;99.90
71142;DHT22;58808;59.366;17.970;2024-03-08T05:33:34;-0.80;99.90
71142;DHT22;58808;59.366;17.970;2024-03-08T05:36:00;-0.70;99.90
71142;DHT22;58808;59.366;17.970;2024-03-08T05:38:29;-0.70;99.90
71142;DHT22;58808;59.366;17.970;2024-03-08T05:40:55;-0.70;99.90
71142;DHT22;58808;59.366;17.970;2024-03-08T05:43:21;-0.70;99.90
71142;DHT22;58808;59.366;17.970;2024-03-08T05:45:47;-0.70;99.90
71142;DHT22;58808;59.366;17.970;2024-03-08T05:48:13;-0.80;99.90
71142;DHT22;58808;59.366;17.970;2024-03-08T05:50:39;-0.80;99.90
71142;DHT22;58808;59.366;17.970;2024-03-08T05:53:05;-0.80;99.90
71142;DHT22;58808;59.366;17.970;2024-03-08T05:55:33;-0.80;99.90
71142;DHT22;58808;59.366;17.970;2024-03-08T05:58:01;-0.80;99.90
71142;DHT22;58808;59.366;17.970;2024-03-08T06:00:27;-0.80;99.90
71142;DHT22;58808;59.366;17.970;2024-03-08T06:02:52;-0.80;99.90
71142;DHT22;58808;59.366;17.970;2024-03-08T06:05:18;-0.80;99.90
71142;DHT22;58808;59.366;17.970;2024-03-08T06:07:44;-0.70;99.90
71142;DHT22;58808;59.366;17.970;2024-03-08T06:10:11;-0.60;99.90
71142;DHT22;58808;59.366;17.970;2024-03-08T06:12:38;-0.60;99.90
71142;DHT22;58808;59.366;17.970;2024-03-08T06:15:07;-0.60;99.90
71142;DHT22;58808;59.366;17.970;2024-03-08T06:17:35;-0.50;99.90
71142;DHT22;58808;59.366;17.970;2024-03-08T06:20:01;-0.50;99.90
71142;DHT22;58808;59.366;17.970;2024-03-08T06:22:27;-0.50;99.90
71142;DHT22;58808;59.366;17.970;2024-03-08T06:24:53;-0.40;99.90
71142;DHT22;58808;59.366;17.970;2024-03-08T06:27:19;-0.40;99.90
71142;DHT22;58808;59.366;17.970;2024-03-08T06:29:45;-0.40;99.90
71142;DHT22;58808;59.366;17.970;2024-03-08T06:32:11;-0.50;99.90
71142;DHT22;58808;59.366;17.970;2024-03-08T06:34:37;-0.50;99.90
71142;DHT22;58808;59.366;17.970;2024-03-08T06:37:02;-0.60;99.90
71142;DHT22;58808;59.366;17.970;2024-03-08T06:39:28;-0.60;99.90
71142;DHT22;58808;59.366;17.970;2024-03-08T06:41:57;-0.50;99.90
71142;DHT22;58808;59.366;17.970;2024-03-08T06:44:23;-0.40;99.90
71142;DHT22;58808;59.366;17.970;2024-03-08T06:46:48;-0.40;99.90
71142;DHT22;58808;59.366;17.970;2024-03-08T06:49:14;-0.40;99.90
71142;DHT22;58808;59.366;17.970;2024-03-08T06:51:41;-0.30;99.90
71142;DHT22;58808;59.366;17.970;2024-03-08T06:54:07;-0.20;99.90
71142;DHT22;58808;59.366;17.970;2024-03-08T06:56:40;-0.20;99.90
71142;DHT22;58808;59.366;17.970;2024-03-08T06:59:09;-0.30;99.90
71142;DHT22;58808;59.366;17.970;2024-03-08T07:01:36;-0.20;99.90
71142;DHT22;58808;59.366;17.970;2024-03-08T07:04:02;-0.10;99.90
71142;DHT22;58808;59.366;17.970;2024-03-08T07:06:30;-0.10;99.90
71142;DHT22;58808;59.366;17.970;2024-03-08T07:08:58;0.00;99.90
71142;DHT22;58808;59.366;17.970;2024-03-08T07:11:24;0.00;99.90
71142;DHT22;58808;59.366;17.970;2024-03-08T07:13:50;0.10;99.90
71142;DHT22;58808;59.366;17.970;2024-03-08T07:16:16;0.10;99.90
71142;DHT22;58808;59.366;17.970;2024-03-08T07:18:42;0.20;99.90
71142;DHT22;58808;59.366;17.970;2024-03-08T07:21:12;0.20;99.90
71142;DHT22;58808;59.366;17.970;2024-03-08T07:23:37;0.20;99.90
71142;DHT22;58808;59.366;17.970;2024-03-08T07:26:20;0.30;99.90
71142;DHT22;58808;59.366;17.970;2024-03-08T07:28:46;0.40;99.90
71142;DHT22;58808;59.366;17.970;2024-03-08T07:31:12;0.40;99.90
71142;DHT22;58808;59.366;17.970;2024-03-08T07:33:37;0.50;99.90
71142;DHT22;58808;59.366;17.970;2024-03-08T07:36:04;0.60;99.90
71142;DHT22;58808;59.366;17.970;2024-03-08T07:38:30;0.80;99.90
71142;DHT22;58808;59.366;17.970;2024-03-08T07:40:55;1.00;99.90
71142;DHT22;58808;59.366;17.970;2024-03-08T07:43:22;1.20;99.90
71142;DHT22;58808;59.366;17.970;2024-03-08T07:45:48;1.30;99.90
71142;DHT22;58808;59.366;17.970;2024-03-08T07:48:14;1.40;99.90
71142;DHT22;58808;59.366;17.970;2024-03-08T07:50:40;1.50;99.90
71142;DHT22;58808;59.366;17.970;2024-03-08T07:53:07;1.60;99.90
71142;DHT22;58808;59.366;17.970;2024-03-08T07:55:36;1.70;99.90
71142;DHT22;58808;59.366;17.970;2024-03-08T07:58:02;1.80;99.90
71142;DHT22;58808;59.366;17.970;2024-03-08T08:00:29;1.80;99.90
71142;DHT22;58808;59.366;17.970;2024-03-08T08:02:57;1.90;99.90
71142;DHT22;58808;59.366;17.970;2024-03-08T08:05:22;1.90;99.90
71142;DHT22;58808;59.366;17.970;2024-03-08T08:07:48;1.90;99.90
71142;DHT22;58808;59.366;17.970;2024-03-08T08:10:15;2.00;99.90
71142;DHT22;58808;59.366;17.970;2024-03-08T08:12:47;2.10;99.90
71142;DHT22;58808;59.366;17.970;2024-03-08T08:15:14;2.30;99.90
71142;DHT22;58808;59.366;17.970;2024-03-08T08:17:44;2.60;99.90
71142;DHT22;58808;59.366;17.970;2024-03-08T08:20:11;2.70;99.90
71142;DHT22;58808;59.366;17.970;2024-03-08T08:22:39;2.90;99.90
71142;DHT22;58808;59.366;17.970;2024-03-08T08:25:09;3.10;99.90
71142;DHT22;58808;59.366;17.970;2024-03-08T08:27:36;3.30;99.90
71142;DHT22;58808;59.366;17.970;2024-03-08T08:30:03;3.50;99.90
71142;DHT22;58808;59.366;17.970;2024-03-08T08:32:36;3.60;99.90
71142;DHT22;58808;59.366;17.970;2024-03-08T08:35:03;3.80;99.90
71142;DHT22;58808;59.366;17.970;2024-03-08T08:37:33;3.90;99.90
71142;DHT22;58808;59.366;17.970;2024-03-08T08:40:01;4.20;99.90
71142;DHT22;58808;59.366;17.970;2024-03-08T08:42:31;4.30;99.90
71142;DHT22;58808;59.366;17.970;2024-03-08T08:44:57;4.40;99.90
71142;DHT22;58808;59.366;17.970;2024-03-08T08:47:23;4.50;99.90
71142;DHT22;58808;59.366;17.970;2024-03-08T08:49:49;4.60;99.90
71142;DHT22;58808;59.366;17.970;2024-03-08T08:52:16;4.70;99.90
71142;DHT22;58808;59.366;17.970;2024-03-08T08:54:43;4.90;99.90
71142;DHT22;58808;59.366;17.970;2024-03-08T08:57:10;5.00;99.90
71142;DHT22;58808;59.366;17.970;2024-03-08T08:59:36;5.10;99.90
71142;DHT22;58808;59.366;17.970;2024-03-08T09:02:02;5.20;99.90
71142;DHT22;58808;59.366;17.970;2024-03-08T09:04:31;5.30;99.90
71142;DHT22;58808;59.366;17.970;2024-03-08T09:06:57;5.40;99.90
71142;DHT22;58808;59.366;17.970;2024-03-08T09:09:23;5.50;99.90
71142;DHT22;58808;59.366;17.970;2024-03-08T09:11:51;5.60;99.90
71142;DHT22;58808;59.366;17.970;2024-03-08T09:14:16;5.70;99.90
71142;DHT22;58808;59.366;17.970;2024-03-08T09:16:42;5.90;99.90
71142;DHT22;58808;59.366;17.970;2024-03-08T09:19:08;5.90;99.90
71142;DHT22;58808;59.366;17.970;2024-03-08T09:21:36;6.00;99.90
71142;DHT22;58808;59.366;17.970;2024-03-08T09:24:02;6.10;99.90
71142;DHT22;58808;59.366;17.970;2024-03-08T09:26:28;6.00;99.90
71142;DHT22;58808;59.366;17.970;2024-03-08T09:28:54;6.00;99.90
71142;DHT22;58808;59.366;17.970;2024-03-08T09:31:23;6.00;99.90
71142;DHT22;58808;59.366;17.970;2024-03-08T09:33:49;6.10;99.90
71142;DHT22;58808;59.366;17.970;2024-03-08T09:36:16;6.20;99.90
71142;DHT22;58808;59.366;17.970;2024-03-08T09:38:46;6.20;99.90
71142;DHT22;58808;59.366;17.970;2024-03-08T09:41:19;6.20;99.90
71142;DHT22;58808;59.366;17.970;2024-03-08T09:43:46;6.30;99.90
71142;DHT22;58808;59.366;17.970;2024-03-08T09:46:12;6.40;99.90
71142;DHT22;58808;59.366;17.970;2024-03-08T09:48:39;6.50;99.90
71142;DHT22;58808;59.366;17.970;2024-03-08T09:51:07;6.50;99.90
71142;DHT22;58808;59.366;17.970;2024-03-08T09:53:33;6.50;99.90
71142;DHT22;58808;59.366;17.970;2024-03-08T09:56:00;6.50;99.90
71142;DHT22;58808;59.366;17.970;2024-03-08T09:58:29;6.60;99.90
71142;DHT22;58808;59.366;17.970;2024-03-08T10:01:00;6.60;99.90
71142;DHT22;58808;59.366;17.970;2024-03-08T10:03:32;6.60;99.90
71142;DHT22;58808;59.366;17.970;2024-03-08T10:05:59;6.60;99.90
71142;DHT22;58808;59.366;17.970;2024-03-08T10:08:27;6.60;99.90
71142;DHT22;58808;59.366;17.970;2024-03-08T10:10:55;6.70;99.90
71142;DHT22;58808;59.366;17.970;2024-03-08T10:13:25;6.80;99.90
71142;DHT22;58808;59.366;17.970;2024-03-08T10:15:52;6.90;99.90
71142;DHT22;58808;59.366;17.970;2024-03-08T10:18:18;7.10;99.90
71142;DHT22;58808;59.366;17.970;2024-03-08T10:20:44;7.30;99.90
71142;DHT22;58808;59.366;17.970;2024-03-08T10:23:10;7.30;99.90
71142;DHT22;58808;59.366;17.970;2024-03-08T10:25:36;7.30;99.90
71142;DHT22;58808;59.366;17.970;2024-03-08T10:28:05;7.50;99.90
71142;DHT22;58808;59.366;17.970;2024-03-08T10:30:31;7.60;99.90
71142;DHT22;58808;59.366;17.970;2024-03-08T10:32:58;7.60;99.90
71142;DHT22;58808;59.366;17.970;2024-03-08T10:35:24;7.50;99.90
71142;DHT22;58808;59.366;17.970;2024-03-08T10:37:52;7.70;99.90
71142;DHT22;58808;59.366;17.970;2024-03-08T10:40:26;7.70;99.90
71142;DHT22;58808;59.366;17.970;2024-03-08T10:42:56;7.80;99.90
71142;DHT22;58808;59.366;17.970;2024-03-08T10:45:31;7.90;99.90
71142;DHT22;58808;59.366;17.970;2024-03-08T10:50:59;8.00;99.90
71142;DHT22;58808;59.366;17.970;2024-03-08T10:53:28;8.10;99.90
71142;DHT22;58808;59.366;17.970;2024-03-08T10:55:56;8.00;99.90
71142;DHT22;58808;59.366;17.970;2024-03-08T10:58:24;8.10;99.90
71142;DHT22;58808;59.366;17.970;2024-03-08T11:00:53;8.30;99.90
71142;DHT22;58808;59.366;17.970;2024-03-08T11:09:02;8.40;99.90
71142;DHT22;58808;59.366;17.970;2024-03-08T11:11:31;8.40;99.90
71142;DHT22;58808;59.366;17.970;2024-03-08T11:13:58;8.60;99.90
71142;DHT22;58808;59.366;17.970;2024-03-08T11:18:55;8.90;99.90
71142;DHT22;58808;59.366;17.970;2024-03-08T11:21:25;8.80;99.90
71142;DHT22;58808;59.366;17.970;2024-03-08T11:24:10;8.90;99.90
71142;DHT22;58808;59.366;17.970;2024-03-08T11:26:37;8.80;99.90
71142;DHT22;58808;59.366;17.970;2024-03-08T11:32:07;8.90;99.90
71142;DHT22;58808;59.366;17.970;2024-03-08T11:34:33;9.00;99.90
71142;DHT22;58808;59.366;17.970;2024-03-08T11:36:59;9.10;99.90
71142;DHT22;58808;59.366;17.970;2024-03-08T11:39:26;9.10;99.90
71142;DHT22;58808;59.366;17.970;2024-03-08T11:41:51;9.30;99.90
71142;DHT22;58808;59.366;17.970;2024-03-08T11:44:17;9.40;99.60
71142;DHT22;58808;59.366;17.970;2024-03-08T11:46:43;9.50;98.90
71142;DHT22;58808;59.366;17.970;2024-03-08T11:49:17;9.20;99.20
71142;DHT22;58808;59.366;17.970;2024-03-08T11:51:43;9.30;99.40
71142;DHT22;58808;59.366;17.970;2024-03-08T11:54:13;9.50;99.20
71142;DHT22;58808;59.366;17.970;2024-03-08T11:56:39;9.60;98.80
71142;DHT22;58808;59.366;17.970;2024-03-08T11:59:11;9.70;98.40
71142;DHT22;58808;59.366;17.970;2024-03-08T12:01:38;9.50;98.70
71142;DHT22;58808;59.366;17.970;2024-03-08T12:04:04;9.60;99.30
71142;DHT22;58808;59.366;17.970;2024-03-08T12:06:38;9.50;98.40
71142;DHT22;58808;59.366;17.970;2024-03-08T12:09:13;9.60;99.00
71142;DHT22;58808;59.366;17.970;2024-03-08T12:11:40;9.80;98.40
71142;DHT22;58808;59.366;17.970;2024-03-08T12:14:06;9.90;98.50
71142;DHT22;58808;59.366;17.970;2024-03-08T12:16:32;9.90;98.20
71142;DHT22;58808;59.366;17.970;2024-03-08T12:19:17;10.00;97.80
71142;DHT22;58808;59.366;17.970;2024-03-08T12:21:43;9.80;97.60
71142;DHT22;58808;59.366;17.970;2024-03-08T12:24:16;9.80;98.10
71142;DHT22;58808;59.366;17.970;2024-03-08T12:26:45;9.90;97.90
71142;DHT22;58808;59.366;17.970;2024-03-08T12:29:20;10.10;97.40
71142;DHT22;58808;59.366;17.970;2024-03-08T12:31:51;10.20;97.20
71142;DHT22;58808;59.366;17.970;2024-03-08T12:34:18;10.40;97.00
71142;DHT22;58808;59.366;17.970;2024-03-08T12:36:48;10.60;96.60
71142;DHT22;58808;59.366;17.970;2024-03-08T12:39:19;10.70;96.70
71142;DHT22;58808;59.366;17.970;2024-03-08T12:41:49;10.60;96.10
71142;DHT22;58808;59.366;17.970;2024-03-08T12:44:17;10.50;95.90
71142;DHT22;58808;59.366;17.970;2024-03-08T12:46:44;10.50;96.10
71142;DHT22;58808;59.366;17.970;2024-03-08T12:49:11;10.60;96.20
71142;DHT22;58808;59.366;17.970;2024-03-08T12:51:38;10.80;96.00
71142;DHT22;58808;59.366;17.970;2024-03-08T12:54:05;10.80;95.60
71142;DHT22;58808;59.366;17.970;2024-03-08T12:56:34;10.80;95.60
71142;DHT22;58808;59.366;17.970;2024-03-08T12:59:00;10.70;95.60
71142;DHT22;58808;59.366;17.970;2024-03-08T13:01:27;10.70;95.60
71142;DHT22;58808;59.366;17.970;2024-03-08T13:03:56;10.80;95.40
71142;DHT22;58808;59.366;17.970;2024-03-08T13:06:22;10.70;94.90
71142;DHT22;58808;59.366;17.970;2024-03-08T13:08:50;10.70;95.10
71142;DHT22;58808;59.366;17.970;2024-03-08T13:11:17;10.90;94.70
71142;DHT22;58808;59.366;17.970;2024-03-08T13:13:45;11.00;94.60
71142;DHT22;58808;59.366;17.970;2024-03-08T13:16:10;11.10;94.40
71142;DHT22;58808;59.366;17.970;2024-03-08T13:18:41;10.90;94.00
71142;DHT22;58808;59.366;17.970;2024-03-08T13:21:10;10.90;94.00
71142;DHT22;58808;59.366;17.970;2024-03-08T13:23:40;11.10;94.20
71142;DHT22;58808;59.366;17.970;2024-03-08T13:26:12;11.00;93.30
71142;DHT22;58808;59.366;17.970;2024-03-08T13:28:49;11.00;93.20
71142;DHT22;58808;59.366;17.970;2024-03-08T13:31:19;11.00;93.40
71142;DHT22;58808;59.366;17.970;2024-03-08T13:33:45;10.90;93.50
71142;DHT22;58808;59.366;17.970;2024-03-08T13:36:12;10.30;93.30
71142;DHT22;58808;59.366;17.970;2024-03-08T13:38:45;10.40;93.60
71142;DHT22;58808;59.366;17.970;2024-03-08T13:41:12;10.50;93.60
71142;DHT22;58808;59.366;17.970;2024-03-08T13:43:43;10.70;93.60
71142;DHT22;58808;59.366;17.970;2024-03-08T13:46:09;10.70;93.20
71142;DHT22;58808;59.366;17.970;2024-03-08T13:48:36;10.60;93.70
71142;DHT22;58808;59.366;17.970;2024-03-08T13:51:07;10.70;93.20
71142;DHT22;58808;59.366;17.970;2024-03-08T13:53:33;10.80;93.40
71142;DHT22;58808;59.366;17.970;2024-03-08T13:56:03;10.60;93.30
71142;DHT22;58808;59.366;17.970;2024-03-08T13:58:29;10.60;93.30
71142;DHT22;58808;59.366;17.970;2024-03-08T14:00:54;10.50;93.60
71142;DHT22;58808;59.366;17.970;2024-03-08T14:03:21;10.50;93.50
71142;DHT22;58808;59.366;17.970;2024-03-08T14:05:47;10.50;93.40
71142;DHT22;58808;59.366;17.970;2024-03-08T14:08:12;10.60;93.30
71142;DHT22;58808;59.366;17.970;2024-03-08T14:10:39;10.60;93.20
71142;DHT22;58808;59.366;17.970;2024-03-08T14:13:05;10.60;93.20
71142;DHT22;58808;59.366;17.970;2024-03-08T14:15:32;10.50;93.40
71142;DHT22;58808;59.366;17.970;2024-03-08T14:17:58;10.40;93.10
71142;DHT22;58808;59.366;17.970;2024-03-08T14:20:25;10.40;93.30
71142;DHT22;58808;59.366;17.970;2024-03-08T14:22:56;10.20;93.20
71142;DHT22;58808;59.366;17.970;2024-03-08T14:25:23;10.10;93.70
71142;DHT22;58808;59.366;17.970;2024-03-08T14:27:50;10.10;93.50
71142;DHT22;58808;59.366;17.970;2024-03-08T14:30:20;10.00;93.50
71142;DHT22;58808;59.366;17.970;2024-03-08T14:33:05;9.90;93.60
71142;DHT22;58808;59.366;17.970;2024-03-08T14:35:31;9.70;93.90
71142;DHT22;58808;59.366;17.970;2024-03-08T14:37:57;9.60;94.00
71142;DHT22;58808;59.366;17.970;2024-03-08T14:40:24;9.60;94.00
71142;DHT22;58808;59.366;17.970;2024-03-08T14:42:51;9.60;94.20
71142;DHT22;58808;59.366;17.970;2024-03-08T14:45:17;9.50;94.20
71142;DHT22;58808;59.366;17.970;2024-03-08T14:47:48;9.30;94.50
71142;DHT22;58808;59.366;17.970;2024-03-08T14:50:20;9.00;95.00
71142;DHT22;58808;59.366;17.970;2024-03-08T14:52:48;8.90;95.30
71142;DHT22;58808;59.366;17.970;2024-03-08T14:55:20;8.80;95.50
71142;DHT22;58808;59.366;17.970;2024-03-08T14:57:51;8.60;95.90
71142;DHT22;58808;59.366;17.970;2024-03-08T15:00:18;8.50;96.10
71142;DHT22;58808;59.366;17.970;2024-03-08T15:02:59;8.20;96.40
71142;DHT22;58808;59.366;17.970;2024-03-08T15:05:25;8.00;96.80
71142;DHT22;58808;59.366;17.970;2024-03-08T15:08:07;7.80;96.90
71142;DHT22;58808;59.366;17.970;2024-03-08T15:10:47;7.80;97.10
71142;DHT22;58808;59.366;17.970;2024-03-08T15:13:19;7.50;97.40
71142;DHT22;58808;59.366;17.970;2024-03-08T15:15:53;7.50;97.30
71142;DHT22;58808;59.366;17.970;2024-03-08T15:18:25;7.20;97.60
71142;DHT22;58808;59.366;17.970;2024-03-08T15:20:54;7.00;97.80
71142;DHT22;58808;59.366;17.970;2024-03-08T15:23:21;6.80;98.20
71142;DHT22;58808;59.366;17.970;2024-03-08T15:25:47;6.60;98.30
71142;DHT22;58808;59.366;17.970;2024-03-08T15:28:15;6.40;98.70
71142;DHT22;58808;59.366;17.970;2024-03-08T15:30:44;6.30;98.90
71142;DHT22;58808;59.366;17.970;2024-03-08T15:33:19;6.30;98.80
71142;DHT22;58808;59.366;17.970;2024-03-08T15:35:50;6.10;99.10
71142;DHT22;58808;59.366;17.970;2024-03-08T15:38:24;5.90;99.30